Time;durP1;ratioP1;P1;durP2;ratioP2;P2;SDS_P1;SDS_P2;PMS_P1;PMS_P2;Temp;Humidity;BMP_temperature;BMP_pressure;BME280_temperature;BME280_humidity;BME280_pressure;Samples;Min_cycle;Max_cycle;Signal;HPM_P1;HPM_P2
2022/09/28 00:00:27;;;;;;;6.75;1.90;;;;;;;23.63;47.20;95663.59;5035607;28;20036;-34
2022/09/28 00:02:56;;;;;;;5.60;1.70;;;;;;;23.58;47.09;95667.22;5035167;28;20030;-34
2022/09/28 00:05:25;;;;;;;7.70;2.17;;;;;;;23.64;47.03;95667.84;5035078;28;20046;-34
2022/09/28 00:07:52;;;;;;;7.93;1.60;;;;;;;23.60;47.31;95675.75;5035468;28;20489;-35
2022/09/28 00:10:21;;;;;;;10.05;2.13;;;;;;;23.55;47.21;95680.09;5035915;28;20037;-34
2022/09/28 00:12:50;;;;;;;9.60;2.53;;;;;;;23.60;47.10;95676.50;5035596;28;20367;-34
2022/09/28 00:15:17;;;;;;;10.88;2.70;;;;;;;23.62;46.96;95676.69;5035663;28;20490;-34
2022/09/28 00:17:46;;;;;;;9.90;2.33;;;;;;;23.56;47.25;95664.97;5035322;28;20457;-34
2022/09/28 00:20:12;;;;;;;7.97;2.03;;;;;;;23.51;47.23;95667.84;5035558;28;20490;-34
2022/09/28 00:22:38;;;;;;;5.90;1.90;;;;;;;23.61;47.03;95674.47;5035369;28;20029;-34
2022/09/28 00:25:05;;;;;;;7.30;1.75;;;;;;;23.54;47.35;95672.31;5035300;28;20483;-34
2022/09/28 00:27:30;;;;;;;7.03;1.95;;;;;;;23.51;47.22;95671.34;5035236;28;20154;-34
2022/09/28 00:29:56;;;;;;;6.22;1.85;;;;;;;23.53;47.30;95670.81;5035201;28;20072;-34
2022/09/28 00:32:23;;;;;;;5.15;1.40;;;;;;;23.49;47.44;95673.16;5035325;28;20036;-34
2022/09/28 00:34:50;;;;;;;4.55;1.45;;;;;;;23.51;47.14;95659.53;5034936;28;20018;-34
2022/09/28 00:37:17;;;;;;;6.82;2.00;;;;;;;23.57;46.94;95666.47;5034717;28;20432;-34
2022/09/28 00:39:44;;;;;;;6.35;1.80;;;;;;;23.55;47.21;95662.75;5035061;28;20021;-35
2022/09/28 00:42:21;;;;;;;7.63;2.45;;;;;;;23.57;46.86;95666.47;5033661;28;20433;-34
2022/09/28 00:44:48;;;;;;;8.15;1.73;;;;;;;23.57;46.74;95655.41;5034813;28;20033;-35
2022/09/28 00:47:39;;;;;;;6.90;1.80;;;;;;;23.58;46.90;95656.91;5035097;28;20501;-34
2022/09/28 00:50:10;;;;;;;8.75;1.60;;;;;;;23.53;46.91;95662.53;5034938;28;20393;-34
2022/09/28 00:52:41;;;;;;;5.32;1.95;;;;;;;23.52;47.05;95658.25;5034794;28;20028;-34
2022/09/28 00:55:15;;;;;;;9.27;1.63;;;;;;;23.55;47.01;95646.13;5034776;28;20386;-34
2022/09/28 00:57:46;;;;;;;5.20;1.58;;;;;;;23.49;47.00;95643.44;5034862;28;20381;-34
2022/09/28 01:00:12;;;;;;;7.97;2.42;;;;;;;23.41;47.18;95642.56;5034717;28;20087;-34
2022/09/28 01:02:38;;;;;;;8.88;2.17;;;;;;;23.51;47.13;95645.69;5034625;28;20029;-34
2022/09/28 01:05:05;;;;;;;7.90;1.58;;;;;;;23.53;46.97;95637.63;5034403;28;20462;-34
2022/09/28 01:07:32;;;;;;;5.53;2.03;;;;;;;23.50;46.99;95638.63;5034766;28;20472;-34
2022/09/28 01:09:58;;;;;;;7.68;1.77;;;;;;;23.52;46.88;95633.34;5034457;28;20072;-34
2022/09/28 01:12:23;;;;;;;6.15;1.98;;;;;;;23.53;46.98;95623.78;5034588;28;20025;-34
2022/09/28 01:14:51;;;;;;;8.60;1.77;;;;;;;23.47;47.24;95625.88;5033863;28;20382;-34
2022/09/28 01:17:24;;;;;;;7.93;2.00;;;;;;;23.50;47.08;95624.81;5034495;28;20017;-34
2022/09/28 01:20:27;;;;;;;6.63;1.90;;;;;;;23.47;47.01;95623.13;5034178;28;20094;-34
2022/09/28 01:23:22;;;;;;;8.70;2.10;;;;;;;23.48;46.87;95621.84;5034179;28;20032;-34
2022/09/28 01:26:07;;;;;;;8.68;1.90;;;;;;;23.41;47.12;95622.47;5034064;28;20111;-34
2022/09/28 01:28:33;;;;;;;6.43;1.73;;;;;;;23.42;47.20;95621.94;5034146;28;20037;-34
2022/09/28 01:31:10;;;;;;;10.98;2.35;;;;;;;23.44;47.12;95615.88;5034015;28;20025;-34
2022/09/28 01:34:08;;;;;;;7.95;2.17;;;;;;;23.43;47.25;95617.16;5034103;28;20029;-34
2022/09/28 01:36:41;;;;;;;8.13;1.83;;;;;;;23.41;47.10;95614.91;5033910;28;20037;-34
2022/09/28 01:39:09;;;;;;;;;;;;;;;23.41;47.07;95614.91;5034330;28;20098;-35
2022/09/28 01:41:39;;;;;;;6.75;1.70;;;;;;;23.45;47.27;95622.91;5034057;28;20431;-34
2022/09/28 01:44:09;;;;;;;6.38;1.90;;;;;;;23.44;46.90;95629.72;5033946;28;20030;-34
2022/09/28 01:46:45;;;;;;;7.40;1.75;;;;;;;23.38;47.22;95627.03;5033606;28;20135;-34
2022/09/28 01:49:18;;;;;;;8.85;2.58;;;;;;;23.43;47.13;95620.66;5034036;28;20032;-34
2022/09/28 01:51:51;;;;;;;5.72;2.83;;;;;;;23.38;47.25;95615.97;5033721;28;20026;-35
2022/09/28 01:54:20;;;;;;;;;;;;;;;23.42;47.13;95605.34;5034210;28;20025;-34
2022/09/28 01:56:54;;;;;;;9.75;1.92;;;;;;;23.42;47.15;95615.66;5033545;28;19952;-34
2022/09/28 01:59:32;;;;;;;7.75;1.95;;;;;;;23.32;47.13;95611.81;5033669;28;20026;-34
2022/09/28 02:02:03;;;;;;;8.98;2.97;;;;;;;23.35;47.20;95613.53;5033511;28;20033;-34
2022/09/28 02:04:40;;;;;;;7.93;2.60;;;;;;;23.39;47.01;95611.19;5033621;28;20049;-34
2022/09/28 02:07:15;;;;;;;7.90;2.08;;;;;;;23.41;47.22;95608.63;5033577;28;20026;-34
2022/09/28 02:09:47;;;;;;;6.95;1.55;;;;;;;23.40;47.09;95615.44;5033582;28;20018;-34
2022/09/28 02:12:26;;;;;;;10.32;2.83;;;;;;;23.42;47.05;95610.13;5033438;28;20030;-34
2022/09/28 02:14:58;;;;;;;7.93;2.00;;;;;;;23.40;47.11;95612.66;5033411;28;20087;-35
2022/09/28 02:17:24;;;;;;;8.27;2.13;;;;;;;23.38;46.99;95609.69;5033674;28;20026;-34
2022/09/28 02:19:49;;;;;;;8.35;1.80;;;;;;;23.36;47.22;95609.50;5033288;28;20532;-34
2022/09/28 02:22:30;;;;;;;5.95;1.70;;;;;;;23.32;46.98;95612.56;5033308;28;20032;-34
2022/09/28 02:25:01;;;;;;;12.63;3.05;;;;;;;23.35;47.43;95610.75;5033224;28;20024;-34
2022/09/28 02:27:41;;;;;;;8.45;1.90;;;;;;;23.35;47.09;95610.75;5035395;28;20028;-34
2022/09/28 02:30:07;;;;;;;7.72;2.20;;;;;;;23.32;47.52;95607.03;5037599;28;20033;-34
2022/09/28 02:32:39;;;;;;;7.75;1.75;;;;;;;23.29;47.39;95606.06;5037616;28;20065;-34
2022/09/28 02:35:10;;;;;;;8.38;1.92;;;;;;;23.39;47.33;95605.66;5037825;28;20409;-34
2022/09/28 02:37:36;;;;;;;6.68;1.50;;;;;;;23.31;47.44;95605.53;5037225;28;20045;-34
2022/09/28 02:40:03;;;;;;;8.88;1.92;;;;;;;23.34;47.26;95603.75;5037391;28;20056;-34
2022/09/28 02:42:43;;;;;;;7.57;1.83;;;;;;;23.28;47.22;95606.59;5037132;28;20100;-34
2022/09/28 02:45:27;;;;;;;6.38;1.80;;;;;;;23.33;47.05;95605.00;5036978;28;20025;-34
2022/09/28 02:48:02;;;;;;;7.97;2.08;;;;;;;23.36;47.30;95603.97;5037187;28;20021;-35
2022/09/28 02:50:52;;;;;;;7.60;1.92;;;;;;;23.33;47.26;95596.72;5037117;28;20103;-34
2022/09/28 02:53:40;;;;;;;6.57;1.60;;;;;;;23.31;47.25;95593.72;5037257;28;20075;-34
2022/09/28 02:56:09;;;;;;;10.50;1.95;;;;;;;23.26;47.37;95581.47;5036881;28;20051;-35
2022/09/28 02:58:44;;;;;;;7.63;1.90;;;;;;;23.30;47.61;95592.97;5036899;28;20096;-34
2022/09/28 03:01:38;;;;;;;7.68;1.83;;;;;;;23.23;47.57;95588.09;5037125;28;20480;-34
2022/09/28 03:04:28;;;;;;;5.15;1.73;;;;;;;23.26;47.23;95590.53;5036713;28;20021;-35
2022/09/28 03:07:20;;;;;;;9.43;2.08;;;;;;;23.22;47.58;95587.34;5036716;28;20488;-34
2022/09/28 03:10:07;;;;;;;10.38;2.72;;;;;;;23.20;47.89;95587.13;5036602;28;20029;-34
2022/09/28 03:12:34;;;;;;;8.43;1.85;;;;;;;23.26;47.40;95592.53;5036700;28;20025;-34
2022/09/28 03:15:18;;;;;;;7.97;1.90;;;;;;;23.31;47.39;95604.78;5036558;28;20029;-34
2022/09/28 03:17:43;;;;;;;8.95;1.83;;;;;;;23.27;47.41;95605.84;5036404;28;20037;-34
2022/09/28 03:20:09;;;;;;;6.65;1.80;;;;;;;23.29;47.61;95614.38;5036555;28;20386;-34
2022/09/28 03:22:34;;;;;;;9.90;2.00;;;;;;;23.29;47.64;95608.09;5036647;28;20029;-34
2022/09/28 03:25:00;;;;;;;10.35;2.20;;;;;;;23.26;47.58;95604.34;5036265;28;20021;-34
2022/09/28 03:27:25;;;;;;;9.25;1.80;;;;;;;23.31;47.23;95602.03;5036668;28;20029;-34
2022/09/28 03:29:51;;;;;;;9.18;1.85;;;;;;;23.23;47.52;95601.94;5036290;28;20083;-34
2022/09/28 03:32:16;;;;;;;7.55;1.73;;;;;;;23.23;47.64;95605.44;5036296;28;20355;-34
2022/09/28 03:34:42;;;;;;;8.50;2.33;;;;;;;23.25;47.50;95602.13;5036355;28;20389;-34
2022/09/28 03:37:07;;;;;;;9.45;2.10;;;;;;;23.23;47.47;95586.06;5036022;28;20490;-34
2022/09/28 03:39:32;;;;;;;10.02;1.90;;;;;;;23.31;47.44;95596.50;5035845;28;20025;-34
2022/09/28 03:42:01;;;;;;;7.00;1.83;;;;;;;23.22;47.73;95594.91;5035957;28;20087;-34
2022/09/28 03:44:26;;;;;;;8.25;2.10;;;;;;;23.32;47.26;95595.22;5036093;28;20025;-34
2022/09/28 03:46:52;;;;;;;8.82;2.67;;;;;;;23.27;47.46;95597.56;5036096;28;20037;-34
2022/09/28 03:49:17;;;;;;;6.40;1.60;;;;;;;23.22;47.38;95586.59;5036049;28;20113;-34
2022/09/28 03:51:43;;;;;;;6.25;1.63;;;;;;;23.20;47.44;95578.09;5035956;28;20023;-34
2022/09/28 03:54:08;;;;;;;10.35;1.95;;;;;;;23.29;47.55;95572.88;5035978;28;20029;-35
2022/09/28 03:56:34;;;;;;;9.43;2.13;;;;;;;23.26;47.30;95573.19;5035844;28;20428;-34
2022/09/28 03:59:02;;;;;;;13.27;3.28;;;;;;;23.18;47.61;95586.91;5035731;28;20017;-34
2022/09/28 04:01:28;;;;;;;9.23;2.40;;;;;;;23.22;47.36;95586.59;5035669;28;20033;-34
2022/09/28 04:03:54;;;;;;;6.70;1.77;;;;;;;23.18;47.46;95595.22;5035721;28;20029;-34
2022/09/28 04:06:20;;;;;;;7.70;1.73;;;;;;;23.20;47.76;95594.69;5035627;28;20032;-34
2022/09/28 04:08:46;;;;;;;7.90;1.75;;;;;;;23.19;47.67;95593.94;5035830;28;20389;-36
2022/09/28 04:11:11;;;;;;;6.10;1.83;;;;;;;23.25;47.38;95596.59;5035577;28;20028;-34
2022/09/28 04:13:38;;;;;;;9.35;2.35;;;;;;;23.22;47.61;95587.34;5035585;28;20045;-34
2022/09/28 04:16:04;;;;;;;7.88;2.10;;;;;;;23.20;47.76;95589.91;5035477;28;20405;-34
2022/09/28 04:18:31;;;;;;;4.70;1.50;;;;;;;23.25;47.49;95589.03;5035306;28;20028;-34
2022/09/28 04:21:07;;;;;;;9.13;2.45;;;;;;;23.20;47.44;95600.97;5035274;28;20051;-34
2022/09/28 04:23:34;;;;;;;8.38;2.50;;;;;;;23.19;47.87;95591.16;5035341;28;20028;-34
2022/09/28 04:26:00;;;;;;;9.90;2.45;;;;;;;23.17;47.69;95596.47;5035254;28;20107;-34
2022/09/28 04:31:13;;;;;;;7.95;2.53;;;;;;;23.25;47.61;95591.78;5035208;28;20032;-34
2022/09/28 04:33:39;;;;;;;8.15;1.85;;;;;;;23.22;47.73;95590.13;5035345;28;20474;-34
2022/09/28 04:36:05;;;;;;;8.90;1.63;;;;;;;23.21;47.43;95594.16;5035467;28;20028;-34
2022/09/28 04:38:31;;;;;;;5.18;1.55;;;;;;;23.19;47.66;95590.41;5034808;28;20045;-34
2022/09/28 04:40:56;;;;;;;8.55;2.13;;;;;;;23.22;47.64;95594.91;5034952;28;20022;-34
2022/09/28 04:43:22;;;;;;;8.18;2.05;;;;;;;23.23;47.69;95599.16;5035099;28;20389;-34
2022/09/28 04:45:47;;;;;;;7.18;2.20;;;;;;;23.22;47.74;95592.13;5034764;28;20565;-34
2022/09/28 04:48:12;;;;;;;6.93;2.30;;;;;;;23.21;47.52;95596.91;5034799;28;20075;-34
2022/09/28 04:50:38;;;;;;;6.40;2.08;;;;;;;23.23;47.52;95596.41;5034103;28;20017;-35
2022/09/28 04:53:03;;;;;;;7.57;1.98;;;;;;;23.19;47.64;95607.75;5034745;28;20029;-34
2022/09/28 04:55:31;;;;;;;8.88;2.00;;;;;;;23.18;47.67;95600.75;5034624;28;20108;-34
2022/09/28 04:58:01;;;;;;;7.90;1.98;;;;;;;23.17;47.77;95596.47;5035016;28;20021;-34
2022/09/28 05:00:28;;;;;;;10.32;2.30;;;;;;;23.19;47.43;95593.19;5034942;28;20018;-34
2022/09/28 05:02:54;;;;;;;8.48;2.42;;;;;;;23.16;47.54;95608.81;5034546;28;20462;-34
2022/09/28 05:05:20;;;;;;;6.97;1.98;;;;;;;23.14;47.68;95610.63;5034518;28;20034;-34
2022/09/28 05:07:45;;;;;;;6.70;1.88;;;;;;;23.18;47.38;95592.44;5033259;28;20025;-34
2022/09/28 05:10:11;;;;;;;9.88;1.80;;;;;;;23.16;47.54;95595.00;5012979;28;20485;-34
2022/09/28 05:12:37;;;;;;;10.77;2.33;;;;;;;23.08;47.96;95593.38;5012847;28;20057;-34
2022/09/28 05:15:03;;;;;;;9.18;2.00;;;;;;;23.13;47.58;95601.56;5011659;28;20025;-34
2022/09/28 05:17:28;;;;;;;8.50;1.98;;;;;;;23.09;47.92;95595.63;5013134;28;20083;-34
2022/09/28 05:19:53;;;;;;;10.20;1.88;;;;;;;23.12;47.49;95605.59;5012687;28;20045;-34
2022/09/28 05:22:19;;;;;;;9.43;2.13;;;;;;;23.10;47.68;95602.66;5012820;28;20466;-34
2022/09/28 05:24:45;;;;;;;10.05;2.60;;;;;;;23.07;47.82;95600.19;5012877;28;20680;-35
2022/09/28 05:27:11;;;;;;;7.00;1.90;;;;;;;23.12;47.48;95605.59;5012634;28;20038;-34
2022/09/28 05:29:36;;;;;;;9.77;2.75;;;;;;;23.08;47.77;95601.69;5012522;28;20486;-33
2022/09/28 05:32:02;;;;;;;10.93;2.72;;;;;;;23.06;47.75;95602.22;5012246;28;20021;-34
2022/09/28 05:34:27;;;;;;;9.07;3.28;;;;;;;23.13;47.72;95601.56;5012608;28;20077;-34
2022/09/28 05:36:53;;;;;;;21.73;7.88;;;;;;;23.07;47.58;95612.00;5012431;28;20024;-34
2022/09/28 05:39:18;;;;;;;13.82;5.55;;;;;;;23.15;47.59;95612.09;5012422;28;20030;-34
2022/09/28 05:41:43;;;;;;;15.43;4.70;;;;;;;23.06;47.92;95612.53;5012653;28;20034;-34
2022/09/28 05:44:09;;;;;;;12.43;4.20;;;;;;;23.14;47.48;95608.59;5012308;28;20417;-34
2022/09/28 05:46:34;;;;;;;14.07;4.30;;;;;;;23.08;47.69;95613.50;5009964;28;20025;-35
2022/09/28 05:49:00;;;;;;;12.95;4.57;;;;;;;23.04;47.80;95613.06;5012467;28;20033;-34
2022/09/28 05:51:25;;;;;;;13.32;4.43;;;;;;;23.11;47.74;95609.69;5012454;28;20108;-34
2022/09/28 05:53:54;;;;;;;12.98;4.07;;;;;;;23.06;47.77;95609.75;5011870;28;20030;-34
2022/09/28 05:56:20;;;;;;;14.98;3.85;;;;;;;23.09;47.95;95605.94;5012228;28;20048;-34
2022/09/28 05:58:45;;;;;;;11.68;3.85;;;;;;;23.02;47.83;95607.28;5012291;28;20434;-34
2022/09/28 06:01:11;;;;;;;9.90;3.30;;;;;;;22.96;48.31;95614.22;5012158;28;20030;-34
2022/09/28 06:03:36;;;;;;;11.43;3.40;;;;;;;23.06;48.00;95596.69;5012105;28;20032;-34
2022/09/28 06:06:02;;;;;;;14.32;3.15;;;;;;;22.98;48.23;95603.38;5012013;28;20073;-34
2022/09/28 06:08:30;;;;;;;13.10;3.33;;;;;;;23.05;48.16;95614.53;5012022;28;20029;-34
2022/09/28 06:10:59;;;;;;;10.95;3.25;;;;;;;23.00;48.08;95609.84;5012368;28;20112;-34
2022/09/28 06:13:26;;;;;;;7.55;2.95;;;;;;;22.99;48.17;95613.91;5012027;28;20040;-34
2022/09/28 06:15:51;;;;;;;9.18;3.13;;;;;;;22.94;48.56;95623.03;5012134;28;20044;-34
2022/09/28 06:18:17;;;;;;;10.88;3.00;;;;;;;23.01;48.38;95619.63;5012004;28;20026;-34
2022/09/28 06:20:42;;;;;;;9.07;3.05;;;;;;;23.02;48.32;95631.44;5011713;28;20028;-34
2022/09/28 06:23:09;;;;;;;10.65;2.95;;;;;;;23.06;48.00;95629.88;5012015;28;20025;-34
2022/09/28 06:25:35;;;;;;;8.18;2.33;;;;;;;23.01;48.15;95622.41;5011978;28;20076;-34
2022/09/28 06:28:12;;;;;;;9.45;2.95;;;;;;;23.01;48.16;95616.88;5012095;28;20029;-34
2022/09/28 06:30:39;;;;;;;8.48;3.15;;;;;;;23.03;48.13;95619.09;5011551;28;20041;-34
2022/09/28 06:33:07;;;;;;;9.15;2.80;;;;;;;23.00;48.36;95625.69;5011616;28;20069;-34
2022/09/28 06:35:33;;;;;;;7.70;2.47;;;;;;;23.00;48.30;95611.84;5011971;28;20029;-35
2022/09/28 06:37:59;;;;;;;7.05;2.45;;;;;;;23.04;48.30;95613.06;5011810;28;20057;-34
2022/09/28 06:40:25;;;;;;;8.55;2.47;;;;;;;23.02;47.97;95618.34;5011946;28;20022;-34
2022/09/28 06:42:55;;;;;;;12.27;2.83;;;;;;;22.98;48.13;95620.72;5011865;28;20544;-34
2022/09/28 06:45:23;;;;;;;7.13;2.30;;;;;;;22.92;48.62;95618.03;5010147;28;20799;-35
2022/09/28 06:47:58;;;;;;;7.38;2.38;;;;;;;23.00;48.54;95618.13;5011844;28;20532;-34
2022/09/28 06:50:26;;;;;;;9.25;2.20;;;;;;;23.02;48.33;95612.09;5013992;28;20113;-34
2022/09/28 06:52:53;;;;;;;7.53;1.90;;;;;;;22.97;48.66;95618.47;5025410;28;20760;-34
2022/09/28 06:55:20;;;;;;;10.73;2.28;;;;;;;23.00;48.24;95618.13;5029679;28;20017;-34
2022/09/28 06:57:46;;;;;;;7.93;2.60;;;;;;;23.05;48.08;95609.00;5028657;28;20049;-34
2022/09/28 07:00:12;;;;;;;9.07;2.72;;;;;;;23.02;48.52;95614.84;5022982;28;20021;-34
2022/09/28 07:02:38;;;;;;;8.68;2.25;;;;;;;23.06;48.14;95623.59;5030087;28;20090;-34
2022/09/28 07:05:07;;;;;;;8.13;2.03;;;;;;;23.06;48.20;95618.81;5027674;28;20033;-34
2022/09/28 07:07:32;;;;;;;7.05;2.40;;;;;;;22.93;48.41;95618.78;5031367;28;20048;-34
2022/09/28 07:09:58;;;;;;;8.18;2.22;;;;;;;22.96;48.66;95622.50;5030867;28;20517;-34
2022/09/28 07:12:24;;;;;;;8.32;2.38;;;;;;;22.93;48.58;95622.28;5029941;28;20108;-34
2022/09/28 07:14:54;;;;;;;9.18;2.30;;;;;;;23.03;48.15;95616.34;5028815;28;20032;-34
2022/09/28 07:17:21;;;;;;;6.18;2.22;;;;;;;22.87;48.62;95618.13;5034933;28;20092;-34
2022/09/28 07:19:51;;;;;;;8.10;2.53;;;;;;;22.88;48.54;95625.88;5034888;28;20078;-34
2022/09/28 07:22:19;;;;;;;7.50;2.25;;;;;;;23.01;48.28;95629.94;5035087;28;20108;-34
2022/09/28 07:24:46;;;;;;;7.35;2.90;;;;;;;22.88;48.54;95625.13;5034881;28;20057;-36
2022/09/28 07:27:12;;;;;;;9.02;2.40;;;;;;;22.97;48.44;95637.81;5023095;28;20030;-34
2022/09/28 07:29:37;;;;;;;6.75;2.15;;;;;;;22.93;48.57;95638.88;5024629;28;20449;-35
2022/09/28 07:32:03;;;;;;;10.98;2.25;;;;;;;22.92;49.07;95642.16;5021860;28;20025;-34
2022/09/28 07:34:52;;;;;;;8.63;2.33;;;;;;;22.91;48.76;95643.44;5019979;28;20022;-35
2022/09/28 07:37:18;;;;;;;7.47;2.50;;;;;;;22.98;48.64;95639.31;5013376;28;20120;-34
2022/09/28 07:42:29;;;;;;;3.97;1.63;;;;;;;22.98;48.38;95645.59;5014911;28;20505;-34
2022/09/28 07:44:56;;;;;;;7.80;2.10;;;;;;;23.00;48.20;95643.03;5022887;28;20038;-34
2022/09/28 07:47:25;;;;;;;7.07;1.98;;;;;;;22.95;48.69;95643.88;5013232;28;20471;-34
2022/09/28 07:49:57;;;;;;;7.57;1.95;;;;;;;22.98;48.37;95645.59;5017879;28;20076;-34
2022/09/28 07:52:25;;;;;;;6.35;1.90;;;;;;;22.95;48.21;95652.16;5018136;28;20378;-34
2022/09/28 07:54:52;;;;;;;5.65;1.75;;;;;;;22.83;48.63;95651.59;5032344;28;20034;-34
2022/09/28 07:57:18;;;;;;;5.05;1.58;;;;;;;22.98;48.64;95648.34;5023849;28;20036;-34
2022/09/28 07:59:44;;;;;;;6.95;1.70;;;;;;;22.96;48.56;95644.63;5033972;28;20051;-35
2022/09/28 08:02:10;;;;;;;6.32;1.50;;;;;;;22.89;49.00;95654.25;5034098;28;20412;-34
2022/09/28 08:04:36;;;;;;;6.88;1.92;;;;;;;22.85;48.74;95653.84;5034205;28;20155;-33
2022/09/28 08:07:02;;;;;;;7.68;2.00;;;;;;;22.94;48.42;95656.22;5033914;28;20128;-34
2022/09/28 08:09:28;;;;;;;6.18;2.15;;;;;;;22.97;48.67;95668.97;5033843;28;20466;-34
2022/09/28 08:11:54;;;;;;;7.85;2.10;;;;;;;22.14;51.25;95674.38;5033502;28;20033;-34
2022/09/28 08:14:19;;;;;;;8.68;1.83;;;;;;;22.46;50.32;95674.47;5035471;28;20029;-35
2022/09/28 08:16:45;;;;;;;8.40;2.22;;;;;;;22.81;49.23;95681.03;5035052;28;20052;-34
2022/09/28 08:19:11;;;;;;;6.40;1.60;;;;;;;22.78;48.77;95679.31;5035491;28;20115;-34
2022/09/28 08:21:45;;;;;;;9.23;1.77;;;;;;;22.99;48.51;95685.81;5035587;28;20036;-34
2022/09/28 08:24:16;;;;;;;7.50;1.70;;;;;;;23.03;48.71;95691.75;5034424;28;20029;-34
2022/09/28 08:26:43;;;;;;;6.65;1.90;;;;;;;22.93;48.90;95690.66;5035670;28;20025;-34
2022/09/28 08:29:09;;;;;;;7.50;2.03;;;;;;;22.86;48.96;95691.28;5035275;28;20096;-34
2022/09/28 08:31:34;;;;;;;14.35;2.40;;;;;;;22.89;48.55;95688.19;5035268;28;20018;-34
2022/09/28 08:34:00;;;;;;;7.47;1.67;;;;;;;23.00;48.25;95692.81;5035292;28;20017;-34
2022/09/28 08:36:27;;;;;;;10.98;2.10;;;;;;;23.06;48.23;95690.72;5035337;28;20148;-34
2022/09/28 08:38:53;;;;;;;7.35;1.58;;;;;;;22.89;48.72;95698.50;5034797;28;20077;-34
2022/09/28 08:41:31;;;;;;;6.22;1.95;;;;;;;22.77;49.23;95697.19;5035093;28;20029;-34
2022/09/28 08:44:02;;;;;;;8.75;2.10;;;;;;;22.59;49.86;95698.66;5035268;28;20485;-33
2022/09/28 08:46:37;;;;;;;11.05;2.40;;;;;;;22.78;49.45;95698.66;5035047;28;20033;-34
2022/09/28 08:49:07;;;;;;;9.63;2.00;;;;;;;22.65;49.58;95698.56;5035178;28;20569;-34
2022/09/28 08:51:46;;;;;;;8.35;1.80;;;;;;;22.78;49.38;95688.34;5035450;28;20073;-34
2022/09/28 08:54:15;;;;;;;7.55;2.20;;;;;;;22.80;49.08;95696.88;5034791;28;20402;-34
2022/09/28 08:56:48;;;;;;;8.75;1.85;;;;;;;22.88;49.11;95691.47;5034639;28;20029;-34
2022/09/28 08:59:19;;;;;;;;;;;;;;;22.73;49.59;95696.72;5035193;28;20083;-34
2022/09/28 09:02:02;;;;;;;8.02;1.75;;;;;;;22.81;49.21;95694.88;5034642;28;19908;-34
2022/09/28 09:04:29;;;;;;;9.20;2.30;;;;;;;22.80;49.51;95699.66;5034864;28;20109;-34
2022/09/28 09:07:16;;;;;;;6.20;1.67;;;;;;;22.76;49.39;95706.75;5033084;28;20448;-36
2022/09/28 09:09:56;;;;;;;7.65;1.70;;;;;;;22.90;48.61;95702.75;5034932;28;20069;-34
2022/09/28 09:13:00;;;;;;;8.98;1.88;;;;;;;22.99;48.53;95705.16;5033217;28;20406;-34
2022/09/28 09:15:56;;;;;;;4.78;1.55;;;;;;;22.92;48.84;95712.03;5034467;28;20423;-35
2022/09/28 09:18:34;;;;;;;7.57;1.77;;;;;;;22.56;49.69;95705.25;5034637;28;20031;-34
2022/09/28 09:21:24;;;;;;;6.78;1.77;;;;;;;22.62;49.55;95721.75;5034356;28;20072;-34
2022/09/28 09:23:54;;;;;;;8.35;2.22;;;;;;;22.66;48.82;95722.94;5034430;28;20450;-34
2022/09/28 09:26:34;;;;;;;9.60;1.50;;;;;;;22.52;49.30;95716.59;5034561;28;20033;-35
2022/09/28 09:29:16;;;;;;;11.95;2.20;;;;;;;22.57;49.01;95712.25;5032781;28;20029;-34
2022/09/28 09:31:50;;;;;;;6.85;1.50;;;;;;;22.68;48.50;95708.59;5034057;28;20033;-34
2022/09/28 09:34:24;;;;;;;7.47;1.67;;;;;;;22.83;48.35;95711.69;5034109;28;20094;-34
2022/09/28 09:37:08;;;;;;;8.88;2.03;;;;;;;22.85;47.96;95709.88;5033999;28;20422;-35
2022/09/28 09:39:50;;;;;;;8.38;1.65;;;;;;;22.94;48.05;95700.44;5034506;28;20053;-34
2022/09/28 09:42:36;;;;;;;7.25;1.45;;;;;;;22.81;48.44;95694.88;5034068;28;20025;-34
2022/09/28 09:45:28;;;;;;;9.20;1.90;;;;;;;22.88;48.29;95694.25;5033813;28;20071;-34
2022/09/28 09:48:02;;;;;;;3.80;1.42;;;;;;;22.92;47.81;95700.97;5033874;28;20466;-34
2022/09/28 09:50:34;;;;;;;8.10;1.80;;;;;;;22.84;47.92;95702.13;5033712;28;20375;-34
2022/09/28 09:53:30;;;;;;;6.88;1.70;;;;;;;22.89;48.01;95704.78;5033611;28;20025;-34
2022/09/28 09:56:02;;;;;;;5.88;1.77;;;;;;;22.76;48.26;95701.97;5033143;28;20033;-34
2022/09/28 09:58:45;;;;;;;8.57;1.73;;;;;;;22.79;48.36;95697.41;5034101;28;20033;-36
2022/09/28 10:01:13;;;;;;;6.82;1.70;;;;;;;22.71;48.25;95707.56;5033619;28;20037;-34
2022/09/28 10:03:43;;;;;;;5.75;1.88;;;;;;;22.61;48.85;95714.72;5033674;28;20410;-34
2022/09/28 10:06:16;;;;;;;6.15;1.38;;;;;;;22.79;47.82;95702.94;5034022;28;20045;-34
2022/09/28 10:08:57;;;;;;;5.35;1.52;;;;;;;22.69;48.16;95705.31;5033652;28;20482;-34
2022/09/28 10:11:30;;;;;;;6.50;1.48;;;;;;;22.65;48.09;95704.84;5032255;28;20029;-34
2022/09/28 10:13:56;;;;;;;8.07;1.60;;;;;;;22.71;48.16;95705.53;5031970;28;20057;-34
2022/09/28 10:16:23;;;;;;;7.35;1.23;;;;;;;22.64;48.16;95706.13;5032756;28;20026;-34
2022/09/28 10:18:48;;;;;;;8.75;1.60;;;;;;;22.63;48.27;95709.41;5033389;28;20034;-34
2022/09/28 10:21:17;;;;;;;10.82;1.80;;;;;;;22.74;48.00;95707.25;5033454;28;20047;-34
2022/09/28 10:23:43;;;;;;;5.68;1.50;;;;;;;22.91;47.32;95716.06;5033349;28;20067;-33
2022/09/28 10:26:15;;;;;;;6.78;2.05;;;;;;;22.90;47.61;95711.06;5033477;28;20029;-34
2022/09/28 10:28:50;;;;;;;6.23;1.33;;;;;;;22.93;47.11;95721.81;5033724;28;20079;-34
2022/09/28 10:31:37;;;;;;;7.75;1.88;;;;;;;23.02;47.26;95726.22;5033246;28;20030;-34
2022/09/28 10:34:07;;;;;;;8.02;1.83;;;;;;;23.07;47.30;95714.31;5032267;28;20025;-35
2022/09/28 10:36:46;;;;;;;8.60;1.80;;;;;;;22.93;47.31;95698.94;5033347;28;20044;-34
2022/09/28 10:39:52;;;;;;;4.38;1.60;;;;;;;22.86;47.49;95702.34;5033114;28;20124;-34
2022/09/28 10:42:32;;;;;;;7.85;2.13;;;;;;;22.90;47.65;95703.50;5031905;28;20037;-34
2022/09/28 10:45:05;;;;;;;5.70;1.70;;;;;;;23.00;47.20;95709.38;5031776;28;20104;-34
2022/09/28 10:47:31;;;;;;;7.32;1.63;;;;;;;22.97;47.11;95691.09;5033603;28;20033;-34
2022/09/28 10:49:59;;;;;;;6.65;1.48;;;;;;;23.09;46.99;95695.19;5037438;28;20374;-34
2022/09/28 10:53:09;;;;;;;6.88;1.60;;;;;;;23.07;46.88;95694.97;5037208;28;20017;-34
2022/09/28 10:55:35;;;;;;;6.63;1.50;;;;;;;22.95;47.45;95692.91;5036956;28;20037;-35
2022/09/28 10:58:23;;;;;;;8.45;2.03;;;;;;;22.86;47.43;95688.50;5036970;28;20026;-34
2022/09/28 11:00:51;;;;;;;4.65;1.65;;;;;;;22.70;48.00;95686.72;5036974;28;20029;-34
2022/09/28 11:03:22;;;;;;;6.40;1.60;;;;;;;22.74;48.20;95681.63;5036977;28;20025;-34
2022/09/28 11:06:04;;;;;;;4.05;1.35;;;;;;;22.95;47.65;95679.06;5037099;28;20025;-34
2022/09/28 11:08:42;;;;;;;4.75;1.40;;;;;;;22.95;47.14;95684.59;5036695;28;20025;-34
2022/09/28 11:11:09;;;;;;;3.22;1.20;;;;;;;22.86;47.43;95671.94;5036947;28;20033;-34
2022/09/28 11:13:43;;;;;;;5.80;1.60;;;;;;;22.79;47.85;95675.28;5036678;28;20080;-35
2022/09/28 11:16:18;;;;;;;5.38;1.40;;;;;;;22.83;47.53;95672.97;5036670;28;20397;-34
2022/09/28 11:18:44;;;;;;;5.93;1.50;;;;;;;22.83;47.88;95668.19;5036612;28;20029;-34
2022/09/28 11:21:20;;;;;;;6.57;1.60;;;;;;;22.75;47.67;95664.50;5036542;28;20033;-34
2022/09/28 11:24:05;;;;;;;4.53;1.38;;;;;;;22.71;48.00;95664.06;5036870;28;20382;-33
2022/09/28 11:26:43;;;;;;;5.93;1.52;;;;;;;22.75;47.69;95655.50;5036511;28;20021;-34
2022/09/28 11:29:22;;;;;;;6.60;1.55;;;;;;;22.90;47.15;95655.75;5036509;28;20087;-34
2022/09/28 11:31:48;;;;;;;6.38;1.23;;;;;;;22.84;47.58;95658.63;5036234;28;20029;-34
2022/09/28 11:34:25;;;;;;;5.60;1.30;;;;;;;22.77;47.70;95647.41;5036299;28;20025;-35
2022/09/28 11:37:21;;;;;;;4.80;1.40;;;;;;;22.83;47.48;95645.31;5036375;28;20025;-34
2022/09/28 11:39:55;;;;;;;8.10;2.00;;;;;;;22.75;47.56;95661.00;5036515;28;20034;-34
2022/09/28 11:42:46;;;;;;;6.28;1.30;;;;;;;22.71;47.94;95653.03;5036583;28;20366;-34
2022/09/28 11:45:46;;;;;;;6.28;1.40;;;;;;;22.60;48.13;95649.69;5036032;28;20060;-34
2022/09/28 11:48:14;;;;;;;6.85;1.58;;;;;;;22.70;47.74;95639.72;5035986;28;20496;-34
2022/09/28 11:50:47;;;;;;;8.52;1.52;;;;;;;22.73;47.62;95639.44;5036077;28;20088;-34
2022/09/28 11:53:49;;;;;;;4.88;1.27;;;;;;;22.79;47.79;95636.59;5035916;28;20439;-34
2022/09/28 11:56:20;;;;;;;5.05;1.27;;;;;;;;;;5033975;28;20409;-34
2022/09/28 11:58:52;;;;;;;7.70;1.48;;;;;;;22.61;48.35;95634.59;5035693;28;20017;-34